createdAt,value
2018-02-23T00:01:22.394Z,28.12
2018-02-23T00:03:48.918Z,23.92
2018-02-23T00:06:16.190Z,23.87
2018-02-23T00:08:43.219Z,26.55
2018-02-23T00:11:09.446Z,24.90
2018-02-23T00:13:35.675Z,19.85
2018-02-23T00:16:02.873Z,23.50
2018-02-23T00:18:29.100Z,22.80
2018-02-23T00:20:55.933Z,24.23
2018-02-23T00:23:22.242Z,22.83
2018-02-23T00:25:48.475Z,26.25
2018-02-23T00:28:15.286Z,25.33
2018-02-23T00:30:41.681Z,25.17
2018-02-23T00:33:08.742Z,24.25
2018-02-23T00:35:35.720Z,26.37
2018-02-23T00:38:01.954Z,24.63
2018-02-23T00:40:28.818Z,22.30
2018-02-23T00:42:55.570Z,25.85
2018-02-23T00:45:22.579Z,31.02
2018-02-23T00:47:48.899Z,29.35
2018-02-23T00:50:15.634Z,24.92
2018-02-23T00:52:42.226Z,21.05
2018-02-23T00:55:09.231Z,28.73
2018-02-23T00:57:35.506Z,27.13
2018-02-23T01:00:02.470Z,24.90
2018-02-23T01:02:30.398Z,25.95
2018-02-23T01:04:58.386Z,27.40
2018-02-23T01:07:25.340Z,30.42
2018-02-23T01:09:52.307Z,23.98
2018-02-23T01:12:19.648Z,26.85
2018-02-23T01:14:47.370Z,25.70
2018-02-23T01:17:13.575Z,29.65
2018-02-23T01:19:40.076Z,31.73
2018-02-23T01:22:07.932Z,29.73
2018-02-23T01:24:35.992Z,28.17
2018-02-23T01:27:02.401Z,24.55
2018-02-23T01:29:28.953Z,28.70
2018-02-23T01:31:56.666Z,29.00
2018-02-23T01:34:22.893Z,27.13
2018-02-23T01:36:49.534Z,39.17
2018-02-23T01:39:16.973Z,29.95
2018-02-23T01:41:43.976Z,26.75
2018-02-23T01:44:11.554Z,27.23
2018-02-23T01:46:38.723Z,26.90
2018-02-23T01:49:05.714Z,27.98
2018-02-23T01:51:32.252Z,23.52
2018-02-23T01:53:59.383Z,25.98
2018-02-23T01:56:25.632Z,27.52
2018-02-23T01:58:52.560Z,23.05
2018-02-23T02:01:18.797Z,31.45
2018-02-23T02:03:45.018Z,25.60
2018-02-23T02:06:11.230Z,26.50
2018-02-23T02:08:38.420Z,28.87
2018-02-23T02:11:05.173Z,30.35
2018-02-23T02:13:31.391Z,29.23
2018-02-23T02:15:57.678Z,29.08
2018-02-23T02:18:25.017Z,32.47
2018-02-23T02:20:51.805Z,28.62
2018-02-23T02:23:18.562Z,27.20
2018-02-23T02:25:45.292Z,30.37
2018-02-23T02:28:11.648Z,27.52
2018-02-23T02:30:39.653Z,32.13
2018-02-23T02:33:06.069Z,31.98
2018-02-23T02:35:32.264Z,25.10
2018-02-23T02:37:59.402Z,31.35
2018-02-23T02:40:26.445Z,28.73
2018-02-23T02:42:52.658Z,29.08
2018-02-23T02:45:20.130Z,31.20
2018-02-23T02:47:46.393Z,24.23
2018-02-23T02:50:13.332Z,29.75
2018-02-23T02:52:40.271Z,28.33
2018-02-23T02:55:07.568Z,30.27
2018-02-23T02:57:34.621Z,23.17
2018-02-23T03:00:01.581Z,27.08
2018-02-23T03:02:28.520Z,22.08
2018-02-23T03:04:54.767Z,25.25
2018-02-23T03:07:22.004Z,28.95
2018-02-23T03:09:48.438Z,29.15
2018-02-23T03:12:14.940Z,25.55
2018-02-23T03:14:42.506Z,23.40
2018-02-23T03:17:09.540Z,26.52
2018-02-23T03:19:35.868Z,29.83
2018-02-23T03:22:02.218Z,30.35
2018-02-23T03:24:28.452Z,29.08
2018-02-23T03:26:55.243Z,26.42
2018-02-23T03:29:22.800Z,23.02
2018-02-23T03:31:49.046Z,28.90
2018-02-23T03:34:16.678Z,26.10
2018-02-23T03:36:43.646Z,26.67
2018-02-23T03:39:10.440Z,26.92
2018-02-23T03:41:36.721Z,25.15
2018-02-23T03:44:03.689Z,30.37
2018-02-23T03:46:30.526Z,30.33
2018-02-23T03:48:57.215Z,25.77
2018-02-23T03:51:24.213Z,31.45
2018-02-23T03:53:50.407Z,31.20
2018-02-23T03:56:17.630Z,29.10
2018-02-23T03:58:45.058Z,33.55
2018-02-23T04:01:12.755Z,28.48
2018-02-23T04:03:39.004Z,31.87
2018-02-23T04:06:06.508Z,27.50
2018-02-23T04:08:32.970Z,30.40
2018-02-23T04:10:59.176Z,28.67
2018-02-23T04:13:25.957Z,25.48
2018-02-23T04:15:52.379Z,29.85
2018-02-23T04:18:18.619Z,27.50
2018-02-23T04:20:45.686Z,26.95
2018-02-23T04:23:12.153Z,28.45
2018-02-23T04:25:38.894Z,25.33
2018-02-23T04:28:05.114Z,27.33
2018-02-23T04:30:31.387Z,27.90
2018-02-23T04:32:57.581Z,26.00
2018-02-23T04:35:23.864Z,28.55
2018-02-23T04:37:50.829Z,24.20
2018-02-23T04:40:17.257Z,26.17
2018-02-23T04:42:44.352Z,27.33
2018-02-23T04:45:10.911Z,23.95
2018-02-23T04:47:38.514Z,30.80
2018-02-23T04:50:05.549Z,32.55
2018-02-23T04:52:31.805Z,32.10
2018-02-23T04:54:58.547Z,26.87
2018-02-23T04:57:24.760Z,29.10
2018-02-23T04:59:51.089Z,33.65
2018-02-23T05:02:17.910Z,38.78
2018-02-23T05:04:44.102Z,33.53
2018-02-23T05:07:10.492Z,35.70
2018-02-23T05:09:37.599Z,35.30
2018-02-23T05:12:04.774Z,35.78
2018-02-23T05:14:31.998Z,31.05
2018-02-23T05:16:59.956Z,31.20
2018-02-23T05:19:26.496Z,30.40
2018-02-23T05:21:53.503Z,26.27
2018-02-23T05:24:19.784Z,29.05
2018-02-23T05:26:46.832Z,28.20
2018-02-23T05:29:14.534Z,24.90
2018-02-23T05:31:40.967Z,28.65
2018-02-23T05:34:07.205Z,31.20
2018-02-23T05:36:34.025Z,30.00
2018-02-23T05:39:00.215Z,32.75
2018-02-23T05:41:27.224Z,26.52
2018-02-23T05:43:53.551Z,31.00
2018-02-23T05:46:19.764Z,34.60
2018-02-23T05:48:46.667Z,32.72
2018-02-23T05:51:14.912Z,35.08
2018-02-23T05:53:41.642Z,28.02
2018-02-23T05:56:07.874Z,32.22
2018-02-23T05:58:34.102Z,31.42
2018-02-23T06:01:00.433Z,34.05
2018-02-23T06:03:26.661Z,32.85
2018-02-23T06:05:52.970Z,27.00
2018-02-23T06:08:19.185Z,32.58
2018-02-23T06:10:46.040Z,29.73
2018-02-23T06:13:13.581Z,32.92
2018-02-23T06:15:46.740Z,31.92
2018-02-23T06:18:19.910Z,36.50
2018-02-23T06:20:46.447Z,32.88
2018-02-23T06:23:12.688Z,29.67
2018-02-23T06:25:38.918Z,32.15
2018-02-23T06:28:06.066Z,29.15
2018-02-23T06:30:32.751Z,30.85
2018-02-23T06:32:59.007Z,31.83
2018-02-23T06:35:25.265Z,31.05
2018-02-23T06:37:52.247Z,35.83
2018-02-23T06:40:18.474Z,30.42
2018-02-23T06:42:45.789Z,36.17
2018-02-23T06:45:13.212Z,30.17
2018-02-23T06:47:41.086Z,36.38
2018-02-23T06:50:07.334Z,35.60
2018-02-23T06:52:33.748Z,36.03
2018-02-23T06:55:01.146Z,34.60
2018-02-23T06:57:28.569Z,44.25
2018-02-23T06:59:55.731Z,38.28
2018-02-23T07:02:24.196Z,44.83
2018-02-23T07:04:50.401Z,45.10
2018-02-23T07:07:16.606Z,45.05
2018-02-23T07:09:43.496Z,42.08
2018-02-23T07:12:10.640Z,42.08
2018-02-23T07:14:37.732Z,52.65
2018-02-23T07:17:04.550Z,42.62
2018-02-23T07:19:31.599Z,40.80
2018-02-23T07:21:58.649Z,40.65
2018-02-23T07:24:25.610Z,40.80
2018-02-23T07:26:52.870Z,36.63
2018-02-23T07:29:20.105Z,35.08
2018-02-23T07:31:47.649Z,38.72
2018-02-23T07:34:13.895Z,41.37
2018-02-23T07:36:40.853Z,39.45
2018-02-23T07:39:07.066Z,33.08
2018-02-23T07:41:35.521Z,32.00
2018-02-23T07:44:01.787Z,30.70
2018-02-23T07:46:28.016Z,36.55
2018-02-23T07:48:55.766Z,34.10
2018-02-23T07:51:24.008Z,30.25
2018-02-23T07:53:50.955Z,28.77
2018-02-23T07:56:18.643Z,32.28
2018-02-23T07:58:46.157Z,31.50
2018-02-23T08:01:13.675Z,33.05
2018-02-23T08:03:40.469Z,30.95
2018-02-23T08:06:07.148Z,33.47
2018-02-23T08:08:34.757Z,34.33
2018-02-23T08:11:01.569Z,39.92
2018-02-23T08:13:27.782Z,38.45
2018-02-23T08:15:55.463Z,40.78
2018-02-23T08:18:21.672Z,36.22
2018-02-23T08:20:47.894Z,39.00
2018-02-23T08:23:14.866Z,36.60
2018-02-23T08:25:41.252Z,36.88
2018-02-23T08:28:08.284Z,35.80
2018-02-23T08:30:34.968Z,34.22
2018-02-23T08:33:01.250Z,34.63
2018-02-23T08:35:27.507Z,37.33
2018-02-23T08:37:54.474Z,32.80
2018-02-23T08:40:21.236Z,33.72
2018-02-23T08:42:48.599Z,31.05
2018-02-23T08:45:15.095Z,30.70
2018-02-23T08:47:42.231Z,35.05
2018-02-23T08:50:09.367Z,32.80
2018-02-23T08:52:36.325Z,28.95
2018-02-23T08:55:04.053Z,34.72
2018-02-23T08:57:31.823Z,33.67
2018-02-23T08:59:58.047Z,31.80
2018-02-23T09:02:24.836Z,36.25
2018-02-23T09:04:52.521Z,29.20
2018-02-23T09:07:19.989Z,34.03
2018-02-23T09:09:47.477Z,33.40
2018-02-23T09:12:14.451Z,31.77
2018-02-23T09:14:40.684Z,29.77
2018-02-23T09:17:07.017Z,31.17
2018-02-23T09:19:33.484Z,29.87
2018-02-23T09:22:01.115Z,26.70
2018-02-23T09:24:27.582Z,28.55
2018-02-23T09:26:55.169Z,32.22
2018-02-23T09:29:22.132Z,34.20
2018-02-23T09:31:49.033Z,31.35
2018-02-23T09:34:27.455Z,31.05
2018-02-23T09:36:54.820Z,28.12
2018-02-23T09:39:22.308Z,34.10
2018-02-23T09:41:48.648Z,34.58
2018-02-23T09:44:15.267Z,36.75
2018-02-23T09:46:42.521Z,33.13
2018-02-23T09:49:09.600Z,34.42
2018-02-23T09:51:36.663Z,33.53
2018-02-23T09:54:03.254Z,35.63
2018-02-23T09:56:30.193Z,31.37
2018-02-23T09:58:57.902Z,31.35
2018-02-23T10:01:24.105Z,31.62
2018-02-23T10:03:51.476Z,36.88
2018-02-23T10:06:18.093Z,35.55
2018-02-23T10:08:46.085Z,34.65
2018-02-23T10:11:12.326Z,27.98
2018-02-23T10:13:39.047Z,33.80
2018-02-23T10:16:05.249Z,35.85
2018-02-23T10:18:31.473Z,34.95
2018-02-23T10:20:57.683Z,30.15
2018-02-23T10:23:24.611Z,33.25
2018-02-23T10:25:50.889Z,37.63
2018-02-23T10:28:17.800Z,36.08
2018-02-23T10:30:45.415Z,29.70
2018-02-23T10:33:12.524Z,32.75
2018-02-23T10:35:39.621Z,33.10
2018-02-23T10:38:06.281Z,29.23
2018-02-23T10:40:32.589Z,32.17
2018-02-23T10:42:59.347Z,24.98
2018-02-23T10:45:26.217Z,30.48
2018-02-23T10:47:53.380Z,25.98
2018-02-23T10:52:54.183Z,26.37
2018-02-23T10:55:20.404Z,26.00
2018-02-23T10:57:47.326Z,26.10
2018-02-23T11:00:13.784Z,29.27
2018-02-23T11:02:40.287Z,25.65
2018-02-23T11:05:07.449Z,27.75
2018-02-23T11:07:33.697Z,30.45
2018-02-23T11:10:01.113Z,33.80
2018-02-23T11:12:28.386Z,30.92
2018-02-23T11:14:55.624Z,29.08
2018-02-23T11:17:22.479Z,27.02
2018-02-23T11:19:48.758Z,31.23
2018-02-23T11:22:15.764Z,28.45
2018-02-23T11:24:41.984Z,31.50
2018-02-23T11:27:08.434Z,29.83
2018-02-23T11:29:35.141Z,30.33
2018-02-23T11:32:02.817Z,29.35
2018-02-23T11:34:29.085Z,28.15
2018-02-23T11:36:57.075Z,28.60
2018-02-23T11:39:24.641Z,27.87
2018-02-23T11:41:51.384Z,29.37
2018-02-23T11:44:17.619Z,34.03
2018-02-23T11:46:43.885Z,28.62
2018-02-23T11:49:10.697Z,32.25
2018-02-23T11:51:36.921Z,27.62
2018-02-23T11:54:03.141Z,28.67
2018-02-23T11:56:30.533Z,29.35
2018-02-23T11:58:57.429Z,25.50
2018-02-23T12:01:24.941Z,26.62
2018-02-23T12:03:51.928Z,27.17
2018-02-23T12:06:19.615Z,34.90
2018-02-23T12:08:46.315Z,29.48
2018-02-23T12:11:13.585Z,24.60
2018-02-23T12:13:41.198Z,26.85
2018-02-23T12:16:07.903Z,26.02
2018-02-23T12:18:34.113Z,26.48
2018-02-23T12:21:00.340Z,27.90
2018-02-23T12:23:26.757Z,24.75
2018-02-23T12:25:54.035Z,25.45
2018-02-23T12:28:21.103Z,26.02
2018-02-23T12:30:49.300Z,28.80
2018-02-23T12:33:16.106Z,26.58
2018-02-23T12:35:43.222Z,26.80
2018-02-23T12:38:11.085Z,24.73
2018-02-23T12:40:38.817Z,27.70
2018-02-23T12:43:05.802Z,28.70
2018-02-23T12:45:33.776Z,28.50
2018-02-23T12:48:01.063Z,30.15
2018-02-23T12:50:27.308Z,29.48
2018-02-23T12:52:53.513Z,32.30
2018-02-23T12:55:20.422Z,33.72
2018-02-23T12:57:48.514Z,35.20
2018-02-23T13:00:15.279Z,30.58
2018-02-23T13:02:41.484Z,29.00
2018-02-23T13:05:08.662Z,32.65
2018-02-23T13:07:34.863Z,30.58
2018-02-23T13:10:01.342Z,30.00
2018-02-23T13:12:27.584Z,35.53
2018-02-23T13:15:00.497Z,29.20
2018-02-23T13:17:27.857Z,29.67
2018-02-23T13:19:54.463Z,29.77
2018-02-23T13:22:21.430Z,27.10
2018-02-23T13:24:48.742Z,33.45
2018-02-23T13:27:20.570Z,31.23
2018-02-23T13:29:47.340Z,29.55
2018-02-23T13:32:14.222Z,30.85
2018-02-23T13:34:41.287Z,35.47
2018-02-23T13:37:07.631Z,34.20
2018-02-23T13:39:34.640Z,28.30
2018-02-23T13:42:02.028Z,37.17
2018-02-23T13:44:28.253Z,36.42
2018-02-23T13:46:54.485Z,32.15
2018-02-23T13:49:20.698Z,29.48
2018-02-23T13:51:47.383Z,34.80
2018-02-23T13:54:25.757Z,30.73
2018-02-23T13:56:51.975Z,30.08
2018-02-23T13:59:18.738Z,29.48
2018-02-23T14:01:45.504Z,29.73
2018-02-23T14:04:12.499Z,29.67
2018-02-23T14:06:39.034Z,32.03
2018-02-23T14:09:05.830Z,33.17
2018-02-23T14:11:32.629Z,33.83
2018-02-23T14:13:58.848Z,30.83
2018-02-23T14:16:25.064Z,30.83
2018-02-23T14:18:53.450Z,29.80
2018-02-23T14:21:20.113Z,28.55
2018-02-23T14:23:46.424Z,29.73
2018-02-23T14:26:12.947Z,30.77
2018-02-23T14:28:39.564Z,28.30
2018-02-23T14:31:06.548Z,30.35
2018-02-23T14:33:33.402Z,29.87
2018-02-23T14:35:59.644Z,28.60
2018-02-23T14:38:26.636Z,26.35
2018-02-23T14:40:54.087Z,29.58
2018-02-23T14:43:21.174Z,34.67
2018-02-23T14:45:48.068Z,34.15
2018-02-23T14:48:26.628Z,28.25
2018-02-23T14:51:02.470Z,34.03
2018-02-23T14:53:28.947Z,34.38
2018-02-23T14:55:55.831Z,32.75
2018-02-23T14:58:23.371Z,32.35
2018-02-23T15:00:49.582Z,32.15
2018-02-23T15:03:16.356Z,34.58
2018-02-23T15:05:43.491Z,28.85
2018-02-23T15:08:10.389Z,34.00
2018-02-23T15:10:36.743Z,28.50
2018-02-23T15:13:03.474Z,30.83
2018-02-23T15:15:30.265Z,34.40
2018-02-23T15:17:57.059Z,36.08
2018-02-23T15:20:24.343Z,34.92
2018-02-23T15:22:52.818Z,35.35
2018-02-23T15:25:20.111Z,35.65
2018-02-23T15:27:46.810Z,34.25
2018-02-23T15:30:26.741Z,35.30
2018-02-23T15:32:53.723Z,37.47
2018-02-23T15:35:20.680Z,35.25
2018-02-23T15:37:46.885Z,32.80
2018-02-23T15:40:13.846Z,31.73
2018-02-23T15:42:41.174Z,31.87
2018-02-23T15:45:08.557Z,36.35
2018-02-23T15:47:35.387Z,32.40
2018-02-23T15:50:20.421Z,34.60
2018-02-23T15:52:46.939Z,36.22
2018-02-23T15:55:13.964Z,35.50
2018-02-23T15:57:52.558Z,35.97
2018-02-23T16:00:19.595Z,39.58
2018-02-23T16:02:47.810Z,37.63
2018-02-23T16:05:14.848Z,42.25
2018-02-23T16:07:42.095Z,38.25
2018-02-23T16:10:09.563Z,40.88
2018-02-23T16:12:36.327Z,41.30
2018-02-23T16:15:02.567Z,40.20
2018-02-23T16:17:29.437Z,49.95
2018-02-23T16:19:56.626Z,40.08
2018-02-23T16:22:23.817Z,45.05
2018-02-23T16:24:50.094Z,41.00
2018-02-23T16:27:16.635Z,41.05
2018-02-23T16:29:44.218Z,41.22
2018-02-23T16:32:11.841Z,39.53
2018-02-23T16:34:38.045Z,47.97
2018-02-23T16:37:05.571Z,36.50
2018-02-23T16:39:32.342Z,49.90
2018-02-23T16:41:59.249Z,44.15
2018-02-23T16:44:26.846Z,49.80
2018-02-23T16:46:53.097Z,46.15
2018-02-23T16:49:19.271Z,44.17
2018-02-23T16:51:46.098Z,46.22
2018-02-23T16:54:12.320Z,44.83
2018-02-23T16:56:39.557Z,50.42
2018-02-23T16:59:05.939Z,48.38
2018-02-23T17:01:32.600Z,50.30
2018-02-23T17:03:59.852Z,39.35
2018-02-23T17:06:27.335Z,43.60
2018-02-23T17:08:53.590Z,46.97
2018-02-23T17:11:19.801Z,46.90
2018-02-23T17:13:46.414Z,40.92
2018-02-23T17:16:13.923Z,47.25
2018-02-23T17:18:40.640Z,43.25
2018-02-23T17:21:07.664Z,44.67
2018-02-23T17:23:33.991Z,42.17
2018-02-23T17:26:00.887Z,44.53
2018-02-23T17:28:27.747Z,44.05
2018-02-23T17:30:54.222Z,46.20
2018-02-23T17:33:21.157Z,44.80
2018-02-23T17:35:47.326Z,44.80
2018-02-23T17:38:13.540Z,45.63
2018-02-23T17:40:39.763Z,46.63
2018-02-23T17:43:06.603Z,41.00
2018-02-23T17:45:32.899Z,48.47
2018-02-23T17:47:59.909Z,53.47
2018-02-23T17:50:26.131Z,51.28
2018-02-23T17:52:52.335Z,49.95
2018-02-23T17:55:18.656Z,48.35
2018-02-23T17:57:44.931Z,47.05
2018-02-23T18:00:11.135Z,45.80
2018-02-23T18:02:37.694Z,47.33
2018-02-23T18:05:05.178Z,46.05
2018-02-23T18:07:32.146Z,47.92
2018-02-23T18:09:58.370Z,45.00
2018-02-23T18:12:24.781Z,47.35
2018-02-23T18:14:51.767Z,47.25
2018-02-23T18:17:18.113Z,50.05
2018-02-23T18:19:44.360Z,45.60
2018-02-23T18:22:10.597Z,42.80
2018-02-23T18:24:37.316Z,53.83
2018-02-23T18:27:03.611Z,47.92
2018-02-23T18:29:29.924Z,47.30
2018-02-23T18:31:56.767Z,50.88
2018-02-23T18:34:23.183Z,46.90
2018-02-23T18:36:50.167Z,41.83
2018-02-23T18:39:16.413Z,49.90
2018-02-23T18:41:42.724Z,41.90
2018-02-23T18:44:09.139Z,49.60
2018-02-23T18:46:35.370Z,48.78
2018-02-23T18:49:02.120Z,49.85
2018-02-23T18:51:29.075Z,43.40
2018-02-23T18:53:55.287Z,44.45
2018-02-23T18:56:21.730Z,46.83
2018-02-23T18:58:49.728Z,43.75
2018-02-23T19:01:16.082Z,48.10
2018-02-23T19:03:43.236Z,45.53
2018-02-23T19:06:10.640Z,51.35
2018-02-23T19:08:37.673Z,52.78
2018-02-23T19:11:04.662Z,43.00
2018-02-23T19:13:31.701Z,49.75
2018-02-23T19:15:57.958Z,43.90
2018-02-23T19:18:28.035Z,45.30
2018-02-23T19:20:56.929Z,51.78
2018-02-23T19:23:23.238Z,43.42
2018-02-23T19:25:49.573Z,44.42
2018-02-23T19:28:16.815Z,46.53
2018-02-23T19:30:43.906Z,39.58
2018-02-23T19:33:10.176Z,48.25
2018-02-23T19:35:37.440Z,48.33
2018-02-23T19:38:05.099Z,45.28
2018-02-23T19:40:32.088Z,43.72
2018-02-23T19:42:58.543Z,35.50
2018-02-23T19:45:26.072Z,42.35
2018-02-23T19:47:53.299Z,41.10
2018-02-23T19:50:19.794Z,48.10
2018-02-23T19:52:46.997Z,44.05
2018-02-23T19:55:13.247Z,42.00
2018-02-23T19:57:40.766Z,38.05
2018-02-23T20:00:07.858Z,43.53
2018-02-23T20:02:34.915Z,42.13
2018-02-23T20:05:01.299Z,42.75
2018-02-23T20:07:28.173Z,52.83
2018-02-23T20:09:54.407Z,50.15
2018-02-23T20:12:21.268Z,42.47
2018-02-23T20:14:48.823Z,43.33
2018-02-23T20:17:15.277Z,34.40
2018-02-23T20:19:42.236Z,41.40
2018-02-23T20:22:10.449Z,39.78
2018-02-23T20:24:36.655Z,41.55
2018-02-23T20:27:03.638Z,39.63
2018-02-23T20:29:30.775Z,42.50
2018-02-23T20:31:57.227Z,42.38
2018-02-23T20:34:24.759Z,39.28
2018-02-23T20:36:51.543Z,40.75
2018-02-23T20:39:18.498Z,41.25
2018-02-23T20:41:44.947Z,42.15
2018-02-23T20:44:11.620Z,38.92
2018-02-23T20:46:38.276Z,43.03
2018-02-23T20:49:05.739Z,38.95
2018-02-23T20:51:32.768Z,41.97
2018-02-23T20:53:59.366Z,46.53
2018-02-23T20:56:26.648Z,36.85
2018-02-23T20:58:53.111Z,36.28
2018-02-23T21:01:20.078Z,38.08
2018-02-23T21:03:46.302Z,38.40
2018-02-23T21:06:12.526Z,45.70
2018-02-23T21:08:39.773Z,43.13
2018-02-23T21:11:06.730Z,38.80
2018-02-23T21:13:32.945Z,40.15
2018-02-23T21:15:59.986Z,31.12
2018-02-23T21:18:26.946Z,39.20
2018-02-23T21:20:53.779Z,43.15
2018-02-23T21:23:21.350Z,39.63
2018-02-23T21:25:47.567Z,41.25
2018-02-23T21:28:15.669Z,41.88
2018-02-23T21:30:43.340Z,45.90
2018-02-23T21:33:09.940Z,37.88
2018-02-23T21:35:36.991Z,41.28
2018-02-23T21:38:03.287Z,40.10
2018-02-23T21:40:29.673Z,43.83
2018-02-23T21:42:56.105Z,41.37
2018-02-23T21:45:23.476Z,47.22
2018-02-23T21:47:50.294Z,40.72
2018-02-23T21:50:17.170Z,44.25
2018-02-23T21:52:43.353Z,41.33
2018-02-23T21:55:10.268Z,33.03
2018-02-23T21:57:36.503Z,41.17
2018-02-23T22:00:03.999Z,39.83
2018-02-23T22:02:31.569Z,41.03
2018-02-23T22:04:57.995Z,44.45
2018-02-23T22:07:24.233Z,42.62
2018-02-23T22:09:51.623Z,44.75
2018-02-23T22:12:18.613Z,54.75
2018-02-23T22:14:44.859Z,46.60
2018-02-23T22:17:11.719Z,42.22
2018-02-23T22:19:38.126Z,41.83
2018-02-23T22:22:04.990Z,40.63
2018-02-23T22:24:32.321Z,48.25
2018-02-23T22:26:59.062Z,39.40
2018-02-23T22:29:25.305Z,39.63
2018-02-23T22:31:52.265Z,41.33
2018-02-23T22:34:20.363Z,36.95
2018-02-23T22:36:46.585Z,36.50
2018-02-23T22:39:12.791Z,39.30
2018-02-23T22:41:39.329Z,40.70
2018-02-23T22:44:05.549Z,39.80
2018-02-23T22:46:31.774Z,42.65
2018-02-23T22:48:57.984Z,39.53
2018-02-23T22:51:24.314Z,43.25
2018-02-23T22:53:51.164Z,42.45
2018-02-23T22:56:17.968Z,39.75
2018-02-23T22:58:44.253Z,46.67
2018-02-23T23:01:10.475Z,42.03
2018-02-23T23:03:36.687Z,41.45
2018-02-23T23:06:03.456Z,48.42
2018-02-23T23:08:29.659Z,41.97
2018-02-23T23:10:55.886Z,36.92
2018-02-23T23:13:23.056Z,49.78
2018-02-23T23:15:49.362Z,42.83
2018-02-23T23:18:15.619Z,43.58
2018-02-23T23:20:42.407Z,38.38
2018-02-23T23:23:08.646Z,39.10
2018-02-23T23:25:34.879Z,42.85
2018-02-23T23:28:02.534Z,38.95
2018-02-23T23:30:28.755Z,43.87
2018-02-23T23:32:55.670Z,43.47
2018-02-23T23:35:22.638Z,40.30
2018-02-23T23:37:49.175Z,33.67
2018-02-23T23:40:16.755Z,41.35
2018-02-23T23:42:43.659Z,42.92
2018-02-23T23:45:11.748Z,39.05
2018-02-23T23:47:38.128Z,34.25
2018-02-23T23:50:05.388Z,33.83
2018-02-23T23:52:33.145Z,35.65
2018-02-23T23:55:02.051Z,34.10
2018-02-23T23:57:28.938Z,35.42
2018-02-23T23:59:55.373Z,33.40
